createdAt,value
2018-12-13T00:01:11.014Z,5.70
2018-12-13T00:03:39.342Z,7.00
2018-12-13T00:06:07.754Z,5.47
2018-12-13T00:08:36.057Z,5.47
2018-12-13T00:11:04.431Z,6.40
2018-12-13T00:13:33.782Z,6.70
2018-12-13T00:16:02.132Z,5.43
2018-12-13T00:18:30.547Z,6.30
2018-12-13T00:20:58.874Z,7.90
2018-12-13T00:23:27.168Z,7.47
2018-12-13T00:25:55.529Z,6.10
2018-12-13T00:28:23.929Z,8.77
2018-12-13T00:30:52.300Z,9.00
2018-12-13T00:33:20.683Z,7.00
2018-12-13T00:35:49.052Z,8.07
2018-12-13T00:38:17.575Z,6.73
2018-12-13T00:40:45.909Z,7.00
2018-12-13T00:43:14.198Z,10.00
2018-12-13T00:45:42.602Z,10.37
2018-12-13T00:48:11.013Z,8.27
2018-12-13T00:50:39.325Z,7.93
2018-12-13T00:53:07.729Z,7.30
2018-12-13T00:55:36.086Z,6.70
2018-12-13T00:58:04.458Z,8.40
2018-12-13T01:00:33.284Z,8.13
2018-12-13T01:03:01.625Z,10.57
2018-12-13T01:05:30.939Z,7.90
2018-12-13T01:07:59.307Z,10.70
2018-12-13T01:10:27.580Z,6.97
2018-12-13T01:12:55.874Z,5.93
2018-12-13T01:15:26.232Z,5.33
2018-12-13T01:17:54.563Z,5.67
2018-12-13T01:20:23.006Z,5.90
2018-12-13T01:22:51.420Z,5.47
2018-12-13T01:25:19.704Z,5.67
2018-12-13T01:27:47.961Z,6.47
2018-12-13T01:30:16.291Z,7.27
2018-12-13T01:32:44.969Z,6.47
2018-12-13T01:35:13.319Z,5.70
2018-12-13T01:37:41.718Z,6.37
2018-12-13T01:40:10.065Z,7.33
2018-12-13T01:42:38.391Z,6.93
2018-12-13T01:45:06.941Z,7.07
2018-12-13T01:47:35.318Z,6.83
2018-12-13T01:50:04.190Z,9.40
2018-12-13T01:52:33.533Z,7.30
2018-12-13T01:55:02.025Z,6.23
2018-12-13T01:57:30.389Z,8.47
2018-12-13T01:59:58.778Z,8.93
2018-12-13T02:02:27.138Z,7.87
2018-12-13T02:04:55.406Z,7.50
2018-12-13T02:07:23.726Z,6.70
2018-12-13T02:09:52.049Z,7.90
2018-12-13T02:12:21.039Z,8.93
2018-12-13T02:14:49.676Z,10.70
2018-12-13T02:17:18.063Z,9.03
2018-12-13T02:19:46.410Z,9.40
2018-12-13T02:22:14.780Z,10.10
2018-12-13T02:24:43.559Z,10.10
2018-12-13T02:27:11.833Z,7.73
2018-12-13T02:29:40.134Z,8.33
2018-12-13T02:32:08.555Z,8.93
2018-12-13T02:34:36.996Z,8.23
2018-12-13T02:37:06.156Z,10.27
2018-12-13T02:39:34.967Z,8.83
2018-12-13T02:42:03.455Z,8.77
2018-12-13T02:44:31.846Z,10.60
2018-12-13T02:47:00.192Z,8.40
2018-12-13T02:49:28.477Z,12.23
2018-12-13T02:51:56.765Z,10.60
2018-12-13T02:54:25.047Z,8.30
2018-12-13T02:56:53.415Z,8.40
2018-12-13T02:59:21.816Z,9.73
2018-12-13T03:01:50.287Z,9.67
2018-12-13T03:04:18.680Z,8.87
2018-12-13T03:06:47.961Z,10.00
2018-12-13T03:09:18.383Z,9.37
2018-12-13T03:11:46.764Z,8.37
2018-12-13T03:14:16.206Z,9.23
2018-12-13T03:16:44.523Z,9.97
2018-12-13T03:19:13.888Z,9.30
2018-12-13T03:21:42.327Z,10.10
2018-12-13T03:24:10.623Z,7.73
2018-12-13T03:26:38.977Z,7.43
2018-12-13T03:29:07.408Z,11.23
2018-12-13T03:31:35.736Z,11.47
2018-12-13T03:34:05.078Z,12.60
2018-12-13T03:36:33.434Z,9.90
2018-12-13T03:39:01.853Z,12.03
2018-12-13T03:41:30.285Z,10.57
2018-12-13T03:43:58.895Z,9.43
2018-12-13T03:46:27.289Z,9.90
2018-12-13T03:48:55.619Z,9.83
2018-12-13T03:51:24.395Z,10.50
2018-12-13T03:53:52.685Z,9.57
2018-12-13T03:56:20.943Z,8.37
2018-12-13T03:58:49.297Z,10.17
2018-12-13T04:01:17.656Z,9.70
2018-12-13T04:03:45.955Z,9.47
2018-12-13T04:06:14.364Z,10.13
2018-12-13T04:08:42.798Z,9.23
2018-12-13T04:11:11.133Z,8.17
2018-12-13T04:13:39.544Z,9.57
2018-12-13T04:16:08.406Z,9.47
2018-12-13T04:18:36.766Z,10.83
2018-12-13T04:21:05.239Z,9.73
2018-12-13T04:23:33.655Z,10.83
2018-12-13T04:26:02.038Z,9.47
2018-12-13T04:28:30.344Z,8.43
2018-12-13T04:30:58.898Z,10.80
2018-12-13T04:33:27.181Z,10.27
2018-12-13T04:35:55.597Z,9.10
2018-12-13T04:38:23.933Z,11.37
2018-12-13T04:40:54.125Z,10.13
2018-12-13T04:43:22.886Z,9.97
2018-12-13T04:45:51.160Z,8.70
2018-12-13T04:48:19.440Z,10.13
2018-12-13T04:50:47.801Z,10.90
2018-12-13T04:53:16.120Z,10.30
2018-12-13T04:55:44.529Z,13.97
2018-12-13T04:58:12.850Z,13.10
2018-12-13T05:00:41.390Z,12.30
2018-12-13T05:03:10.727Z,11.47
2018-12-13T05:05:39.089Z,13.53
2018-12-13T05:08:08.478Z,10.87
2018-12-13T05:10:48.708Z,13.20
2018-12-13T05:13:17.164Z,13.27
2018-12-13T05:15:45.430Z,11.07
2018-12-13T05:18:13.847Z,12.00
2018-12-13T05:20:42.305Z,12.77
2018-12-13T05:23:10.793Z,13.83
2018-12-13T05:25:39.172Z,10.97
2018-12-13T05:28:07.632Z,14.90
2018-12-13T05:30:37.319Z,12.80
2018-12-13T05:33:05.869Z,11.03
2018-12-13T05:35:34.272Z,10.50
2018-12-13T05:38:03.734Z,10.77
2018-12-13T05:40:32.140Z,11.33
2018-12-13T05:43:00.483Z,12.27
2018-12-13T05:45:30.677Z,12.33
2018-12-13T05:47:59.039Z,11.20
2018-12-13T05:50:27.403Z,9.80
2018-12-13T05:52:55.738Z,11.87
2018-12-13T05:55:25.069Z,11.67
2018-12-13T05:57:53.398Z,12.37
2018-12-13T06:00:21.945Z,11.70
2018-12-13T06:02:50.337Z,11.77
2018-12-13T06:05:20.004Z,9.80
2018-12-13T06:07:54.697Z,9.47
2018-12-13T06:10:18.694Z,10.27
2018-12-13T06:12:48.059Z,11.00
2018-12-13T06:15:16.409Z,12.03
2018-12-13T06:17:45.778Z,10.97
2018-12-13T06:20:14.341Z,10.67
2018-12-13T06:22:44.667Z,12.63
2018-12-13T06:25:13.121Z,9.97
2018-12-13T06:27:41.418Z,10.70
2018-12-13T06:30:09.838Z,9.63
2018-12-13T06:32:40.146Z,11.50
2018-12-13T06:35:13.595Z,12.67
2018-12-13T06:40:35.831Z,13.13
2018-12-13T06:43:04.275Z,10.23
2018-12-13T06:45:32.542Z,11.77
2018-12-13T06:48:00.839Z,14.03
2018-12-13T06:50:29.129Z,14.37
2018-12-13T06:52:58.390Z,14.23
2018-12-13T06:55:26.659Z,13.33
2018-12-13T06:57:54.932Z,13.33
2018-12-13T07:00:23.353Z,12.97
2018-12-13T07:02:51.646Z,11.33
2018-12-13T07:05:20.005Z,12.57
2018-12-13T07:07:48.284Z,13.83
2018-12-13T07:10:18.072Z,15.07
2018-12-13T07:12:46.357Z,14.93
2018-12-13T07:15:14.664Z,12.60
2018-12-13T07:17:42.947Z,12.97
2018-12-13T07:20:11.246Z,13.67
2018-12-13T07:22:39.582Z,15.37
2018-12-13T07:25:08.010Z,15.40
2018-12-13T07:27:36.285Z,14.47
2018-12-13T07:30:06.201Z,13.67
2018-12-13T07:32:34.601Z,15.87
2018-12-13T07:35:02.987Z,13.07
2018-12-13T07:37:31.279Z,12.43
2018-12-13T07:40:00.634Z,11.80
2018-12-13T07:42:28.913Z,13.30
2018-12-13T07:44:57.263Z,25.33
2018-12-13T07:47:25.539Z,27.50
2018-12-13T07:49:53.860Z,21.07
2018-12-13T07:52:22.165Z,17.90
2018-12-13T07:54:50.417Z,17.70
2018-12-13T07:57:18.694Z,13.03
2018-12-13T07:59:46.959Z,14.60
2018-12-13T08:02:15.231Z,15.40
2018-12-13T08:04:43.520Z,14.00
2018-12-13T08:07:11.898Z,14.03
2018-12-13T08:09:40.200Z,12.07
2018-12-13T08:12:08.636Z,14.33
2018-12-13T08:14:36.999Z,18.07
2018-12-13T08:17:05.299Z,17.80
2018-12-13T08:19:33.588Z,12.33
2018-12-13T08:22:01.902Z,12.13
2018-12-13T08:24:34.097Z,17.13
2018-12-13T08:27:02.587Z,15.27
2018-12-13T08:29:30.863Z,17.07
2018-12-13T08:31:59.128Z,16.37
2018-12-13T08:34:27.404Z,15.93
2018-12-13T08:36:55.726Z,14.93
2018-12-13T08:39:24.013Z,17.63
2018-12-13T08:41:52.315Z,19.13
2018-12-13T08:44:20.577Z,16.50
2018-12-13T08:46:48.864Z,16.63
2018-12-13T08:49:17.166Z,18.40
2018-12-13T08:51:45.489Z,17.80
2018-12-13T08:54:13.827Z,17.53
2018-12-13T08:56:42.119Z,19.23
2018-12-13T08:59:10.378Z,20.03
2018-12-13T09:01:38.874Z,20.60
2018-12-13T09:04:07.220Z,18.90
2018-12-13T09:06:35.489Z,16.20
2018-12-13T09:09:05.271Z,16.23
2018-12-13T09:11:34.538Z,18.80
2018-12-13T09:14:03.232Z,15.37
2018-12-13T09:16:31.790Z,19.17
2018-12-13T09:19:00.290Z,17.50
2018-12-13T09:21:28.547Z,16.43
2018-12-13T09:23:56.850Z,17.30
2018-12-13T09:26:25.114Z,18.00
2018-12-13T09:28:53.484Z,24.60
2018-12-13T09:31:21.812Z,22.20
2018-12-13T09:33:50.177Z,20.47
2018-12-13T09:36:18.442Z,19.73
2018-12-13T09:38:46.721Z,17.10
2018-12-13T09:41:15.004Z,17.67
2018-12-13T09:43:43.325Z,14.57
2018-12-13T09:46:12.788Z,16.47
2018-12-13T09:48:41.081Z,15.37
2018-12-13T09:51:09.431Z,12.60
2018-12-13T09:53:37.994Z,16.57
2018-12-13T09:56:06.443Z,14.57
2018-12-13T09:58:34.827Z,21.63
2018-12-13T10:01:03.169Z,14.80
2018-12-13T10:03:31.491Z,13.53
2018-12-13T10:05:59.738Z,15.53
2018-12-13T10:08:28.034Z,14.13
2018-12-13T10:10:56.310Z,15.00
2018-12-13T10:13:24.610Z,14.13
2018-12-13T10:15:52.888Z,15.93
2018-12-13T10:18:21.162Z,13.70
2018-12-13T10:20:49.518Z,15.17
2018-12-13T10:23:17.855Z,11.47
2018-12-13T10:25:46.370Z,11.17
2018-12-13T10:28:14.672Z,14.17
2018-12-13T10:30:43.085Z,14.70
2018-12-13T10:33:11.475Z,13.90
2018-12-13T10:35:39.804Z,13.87
2018-12-13T10:38:09.241Z,12.23
2018-12-13T10:40:37.638Z,10.67
2018-12-13T10:43:06.054Z,16.00
2018-12-13T10:45:34.448Z,13.23
2018-12-13T10:48:02.846Z,12.60
2018-12-13T10:50:31.211Z,13.23
2018-12-13T10:52:59.629Z,12.43
2018-12-13T10:55:27.946Z,10.73
2018-12-13T10:57:56.212Z,15.27
2018-12-13T11:00:31.920Z,11.87
2018-12-13T11:03:17.155Z,12.33
2018-12-13T11:08:36.989Z,12.73
2018-12-13T11:11:07.280Z,10.03
2018-12-13T11:13:36.252Z,12.03
2018-12-13T11:16:04.725Z,10.43
2018-12-13T11:18:33.040Z,12.57
2018-12-13T11:21:01.415Z,10.57
2018-12-13T11:23:29.831Z,12.77
2018-12-13T11:25:58.218Z,11.97
2018-12-13T11:28:37.807Z,12.80
2018-12-13T11:31:06.233Z,10.37
2018-12-13T11:33:34.523Z,11.33
2018-12-13T11:36:02.845Z,9.57
2018-12-13T11:38:31.128Z,10.37
2018-12-13T11:40:59.602Z,13.17
2018-12-13T11:43:27.878Z,11.57
2018-12-13T11:45:56.235Z,12.67
2018-12-13T11:48:24.507Z,12.13
2018-12-13T11:50:52.829Z,13.17
2018-12-13T11:53:21.122Z,9.20
2018-12-13T11:55:49.424Z,10.77
2018-12-13T11:58:17.799Z,10.93
2018-12-13T12:00:46.281Z,17.43
2018-12-13T12:03:14.649Z,13.77
2018-12-13T12:05:42.978Z,11.27
2018-12-13T12:08:11.410Z,12.40
2018-12-13T12:10:39.882Z,10.70
2018-12-13T12:13:08.258Z,12.07
2018-12-13T12:15:36.735Z,15.10
2018-12-13T12:18:05.147Z,15.50
2018-12-13T12:20:33.518Z,14.00
2018-12-13T12:23:01.837Z,13.70
2018-12-13T12:25:30.129Z,15.80
2018-12-13T12:27:58.523Z,13.13
2018-12-13T12:30:26.845Z,16.67
2018-12-13T12:32:55.237Z,16.20
2018-12-13T12:35:23.529Z,12.30
2018-12-13T12:37:51.833Z,14.63
2018-12-13T12:40:20.122Z,17.20
2018-12-13T12:42:48.393Z,21.07
2018-12-13T12:45:16.730Z,17.33
2018-12-13T12:47:45.056Z,15.90
2018-12-13T12:50:13.447Z,14.63
2018-12-13T12:52:41.773Z,14.07
2018-12-13T12:55:10.168Z,16.87
2018-12-13T12:57:38.546Z,16.57
2018-12-13T13:00:08.586Z,16.73
2018-12-13T13:02:37.170Z,18.20
2018-12-13T13:05:05.936Z,17.83
2018-12-13T13:07:34.521Z,18.17
2018-12-13T13:10:02.926Z,14.77
2018-12-13T13:12:31.243Z,15.60
2018-12-13T13:14:59.566Z,15.20
2018-12-13T13:17:27.864Z,15.33
2018-12-13T13:19:56.127Z,18.17
2018-12-13T13:22:24.483Z,18.03
2018-12-13T13:24:52.787Z,15.70
2018-12-13T13:27:21.064Z,15.70
2018-12-13T13:29:55.953Z,14.93
2018-12-13T13:32:24.223Z,15.60
2018-12-13T13:34:52.506Z,16.07
2018-12-13T13:37:20.871Z,24.17
2018-12-13T13:39:49.150Z,20.30
2018-12-13T13:42:17.509Z,18.60
2018-12-13T13:44:45.924Z,19.67
2018-12-13T13:47:14.201Z,20.90
2018-12-13T13:49:42.487Z,20.13
2018-12-13T13:52:10.822Z,17.37
2018-12-13T13:54:39.178Z,18.60
2018-12-13T13:57:08.316Z,19.87
2018-12-13T13:59:36.589Z,19.80
2018-12-13T14:02:05.022Z,25.90
2018-12-13T14:04:33.313Z,20.63
2018-12-13T14:07:01.596Z,16.67
2018-12-13T14:09:29.881Z,18.43
2018-12-13T14:11:58.141Z,20.10
2018-12-13T14:14:26.420Z,16.07
2018-12-13T14:16:54.789Z,15.13
2018-12-13T14:19:23.180Z,14.50
2018-12-13T14:21:51.507Z,13.63
2018-12-13T14:24:19.775Z,11.97
2018-12-13T14:26:48.074Z,11.67
2018-12-13T14:29:16.543Z,14.37
2018-12-13T14:31:44.838Z,11.37
2018-12-13T14:34:13.228Z,14.67
2018-12-13T14:36:41.567Z,15.23
2018-12-13T14:39:10.109Z,19.13
2018-12-13T14:41:38.467Z,16.17
2018-12-13T14:44:07.018Z,14.97
2018-12-13T14:46:35.310Z,15.70
2018-12-13T14:49:03.718Z,18.60
2018-12-13T14:51:32.066Z,15.23
2018-12-13T14:54:01.836Z,15.73
2018-12-13T14:56:31.766Z,13.73
2018-12-13T14:59:01.092Z,18.43
2018-12-13T15:01:29.467Z,16.00
2018-12-13T15:03:57.740Z,16.03
2018-12-13T15:06:26.035Z,12.83
2018-12-13T15:08:54.383Z,15.30
2018-12-13T15:11:22.685Z,17.93
2018-12-13T15:13:51.047Z,19.03
2018-12-13T15:16:19.350Z,14.43
2018-12-13T15:18:47.843Z,18.23
2018-12-13T15:21:16.770Z,17.13
2018-12-13T15:23:45.151Z,16.17
2018-12-13T15:26:13.465Z,15.63
2018-12-13T15:28:41.843Z,16.70
2018-12-13T15:31:10.210Z,15.30
2018-12-13T15:33:38.482Z,19.50
2018-12-13T15:36:06.932Z,19.07
2018-12-13T15:38:36.136Z,19.00
2018-12-13T15:41:05.952Z,15.13
2018-12-13T15:43:34.289Z,18.57
2018-12-13T15:46:02.786Z,16.67
2018-12-13T15:48:31.284Z,18.03
2018-12-13T15:50:59.768Z,14.20
2018-12-13T15:53:29.413Z,16.23
2018-12-13T15:55:57.731Z,18.30
2018-12-13T15:58:26.146Z,19.27
2018-12-13T16:00:54.728Z,16.23
2018-12-13T16:03:23.171Z,17.40
2018-12-13T16:05:52.411Z,21.10
2018-12-13T16:08:20.729Z,15.73
2018-12-13T16:10:49.106Z,16.53
2018-12-13T16:13:17.482Z,15.20
2018-12-13T16:15:45.872Z,20.10
2018-12-13T16:18:14.223Z,20.60
2018-12-13T16:20:43.033Z,20.80
2018-12-13T16:23:11.305Z,21.53
2018-12-13T16:25:39.788Z,16.30
2018-12-13T16:28:08.645Z,16.47
2018-12-13T16:30:37.056Z,21.47
2018-12-13T16:33:05.622Z,18.67
2018-12-13T16:35:35.577Z,17.90
2018-12-13T16:38:03.944Z,16.43
2018-12-13T16:40:32.331Z,17.20
2018-12-13T16:43:00.724Z,21.13
2018-12-13T16:45:29.089Z,16.60
2018-12-13T16:47:57.490Z,16.13
2018-12-13T16:50:25.907Z,19.87
2018-12-13T16:52:54.466Z,17.93
2018-12-13T16:55:22.790Z,14.50
2018-12-13T16:57:52.587Z,16.47
2018-12-13T17:00:20.995Z,16.47
2018-12-13T17:02:49.397Z,19.77
2018-12-13T17:05:17.738Z,14.73
2018-12-13T17:07:46.165Z,16.47
2018-12-13T17:10:16.929Z,15.20
2018-12-13T17:12:45.597Z,20.10
2018-12-13T17:15:14.030Z,17.30
2018-12-13T17:17:42.429Z,21.67
2018-12-13T17:20:10.777Z,23.40
2018-12-13T17:22:39.202Z,23.37
2018-12-13T17:25:07.743Z,21.30
2018-12-13T17:27:36.131Z,19.47
2018-12-13T17:30:06.529Z,16.30
2018-12-13T17:32:34.850Z,19.97
2018-12-13T17:35:03.319Z,20.13
2018-12-13T17:37:31.756Z,19.90
2018-12-13T17:40:00.071Z,18.83
2018-12-13T17:42:28.545Z,16.63
2018-12-13T17:44:56.862Z,15.87
2018-12-13T17:47:25.165Z,19.13
2018-12-13T17:49:53.489Z,20.57
2018-12-13T17:52:21.848Z,21.50
2018-12-13T17:54:50.280Z,19.10
2018-12-13T17:57:18.581Z,20.27
2018-12-13T17:59:46.909Z,16.77
2018-12-13T18:02:15.262Z,18.73
2018-12-13T18:04:43.645Z,21.03
2018-12-13T18:07:11.926Z,20.43
2018-12-13T18:09:40.196Z,23.20
2018-12-13T18:12:09.581Z,20.80
2018-12-13T18:14:38.930Z,24.73
2018-12-13T18:17:07.485Z,22.73
2018-12-13T18:19:35.892Z,24.90
2018-12-13T18:22:04.333Z,24.63
2018-12-13T18:24:32.859Z,22.43
2018-12-13T18:27:01.167Z,20.23
2018-12-13T18:29:29.549Z,24.80
2018-12-13T18:31:57.837Z,21.33
2018-12-13T18:34:26.113Z,24.17
2018-12-13T18:36:54.418Z,25.23
2018-12-13T18:39:23.238Z,20.17
2018-12-13T18:41:51.680Z,20.70
2018-12-13T18:44:19.962Z,18.93
2018-12-13T18:46:49.136Z,20.03
2018-12-13T18:49:17.544Z,18.63
2018-12-13T18:51:45.838Z,19.53
2018-12-13T18:54:14.890Z,22.30
2018-12-13T18:56:43.153Z,16.93
2018-12-13T18:59:11.516Z,20.90
2018-12-13T19:01:39.910Z,18.77
2018-12-13T19:04:08.322Z,16.50
2018-12-13T19:06:36.601Z,18.17
2018-12-13T19:09:06.791Z,19.77
2018-12-13T19:11:35.132Z,18.03
2018-12-13T19:14:04.160Z,21.07
2018-12-13T19:16:32.519Z,19.27
2018-12-13T19:19:00.867Z,23.37
2018-12-13T19:21:29.340Z,22.90
2018-12-13T19:23:57.666Z,19.50
2018-12-13T19:26:25.997Z,20.70
2018-12-13T19:28:54.407Z,17.63
2018-12-13T19:31:22.809Z,21.93
2018-12-13T19:33:51.794Z,22.30
2018-12-13T19:36:20.144Z,22.97
2018-12-13T19:38:48.663Z,21.10
2018-12-13T19:41:17.170Z,22.57
2018-12-13T19:43:45.559Z,20.77
2018-12-13T19:46:13.946Z,20.97
2018-12-13T19:48:43.238Z,19.97
2018-12-13T19:51:11.600Z,24.10
2018-12-13T19:53:40.212Z,19.93
2018-12-13T19:56:09.514Z,18.07
2018-12-13T19:58:37.994Z,18.90
2018-12-13T20:01:07.387Z,24.07
2018-12-13T20:03:36.006Z,22.53
2018-12-13T20:06:04.482Z,16.37
2018-12-13T20:08:32.861Z,18.80
2018-12-13T20:11:01.276Z,16.53
2018-12-13T20:13:29.681Z,23.67
2018-12-13T20:15:58.116Z,18.10
2018-12-13T20:18:26.522Z,18.27
2018-12-13T20:20:54.890Z,27.93
2018-12-13T20:23:23.302Z,26.03
2018-12-13T20:25:51.711Z,19.50
2018-12-13T20:28:21.393Z,18.73
2018-12-13T20:30:49.678Z,20.77
2018-12-13T20:33:18.038Z,23.60
2018-12-13T20:35:46.382Z,20.70
2018-12-13T20:38:14.721Z,19.33
2018-12-13T20:40:43.001Z,21.73
2018-12-13T20:43:11.447Z,21.73
2018-12-13T20:45:39.780Z,18.97
2018-12-13T20:48:08.334Z,18.77
2018-12-13T20:50:36.588Z,20.83
2018-12-13T20:53:04.925Z,22.07
2018-12-13T20:55:34.212Z,17.67
2018-12-13T20:58:02.518Z,19.23
2018-12-13T21:00:30.846Z,21.13
2018-12-13T21:03:03.102Z,25.53
2018-12-13T21:05:31.471Z,20.77
2018-12-13T21:08:05.067Z,22.40
2018-12-13T21:10:35.525Z,21.73
2018-12-13T21:13:03.860Z,20.73
2018-12-13T21:15:32.286Z,18.23
2018-12-13T21:18:00.699Z,20.63
2018-12-13T21:20:29.085Z,18.80
2018-12-13T21:22:57.975Z,25.00
2018-12-13T21:25:26.527Z,24.03
2018-12-13T21:27:54.902Z,19.83
2018-12-13T21:30:24.181Z,23.50
2018-12-13T21:32:52.469Z,24.50
2018-12-13T21:35:32.599Z,25.07
2018-12-13T21:38:13.073Z,23.30
2018-12-13T21:40:53.769Z,21.27
2018-12-13T21:43:22.186Z,22.23
2018-12-13T21:45:54.606Z,23.20
2018-12-13T21:48:23.876Z,21.77
2018-12-13T21:50:56.795Z,21.10
2018-12-13T21:53:25.433Z,23.57
2018-12-13T21:55:56.779Z,25.33
2018-12-13T21:58:35.869Z,21.73
2018-12-13T22:01:06.133Z,25.73
2018-12-13T22:03:34.450Z,25.97
2018-12-13T22:06:02.710Z,29.83
2018-12-13T22:08:30.994Z,24.07
2018-12-13T22:11:00.221Z,20.13
2018-12-13T22:13:28.498Z,29.40
2018-12-13T22:15:56.905Z,26.60
2018-12-13T22:18:25.387Z,36.10
2018-12-13T22:20:53.747Z,26.57
2018-12-13T22:23:22.107Z,24.07
2018-12-13T22:25:50.502Z,26.83
2018-12-13T22:28:19.526Z,25.57
2018-12-13T22:30:47.817Z,31.70
2018-12-13T22:33:16.083Z,27.40
2018-12-13T22:35:44.369Z,24.63
2018-12-13T22:38:12.752Z,30.50
2018-12-13T22:40:41.034Z,37.10
2018-12-13T22:43:10.310Z,24.47
2018-12-13T22:45:38.653Z,33.13
2018-12-13T22:48:07.063Z,28.83
2018-12-13T22:50:35.349Z,27.43
2018-12-13T22:53:03.716Z,24.47
2018-12-13T22:55:32.021Z,21.33
2018-12-13T22:58:00.309Z,32.77
2018-12-13T23:00:28.711Z,30.20
2018-12-13T23:02:57.088Z,29.33
2018-12-13T23:05:25.380Z,26.27
2018-12-13T23:07:53.654Z,23.73
2018-12-13T23:10:22.021Z,27.47
2018-12-13T23:12:50.326Z,24.90
2018-12-13T23:15:18.583Z,24.70
2018-12-13T23:17:46.995Z,27.23
2018-12-13T23:20:15.400Z,27.87
2018-12-13T23:22:43.732Z,23.73
2018-12-13T23:25:12.104Z,26.97
2018-12-13T23:27:40.440Z,27.97
2018-12-13T23:30:09.420Z,25.33
2018-12-13T23:32:37.682Z,23.47
2018-12-13T23:35:06.101Z,19.70
2018-12-13T23:37:34.656Z,24.07
2018-12-13T23:40:05.794Z,22.97
2018-12-13T23:42:34.160Z,23.93
2018-12-13T23:45:02.750Z,23.60
2018-12-13T23:47:31.053Z,20.63
2018-12-13T23:49:59.460Z,17.83
2018-12-13T23:52:27.812Z,21.23
2018-12-13T23:54:56.176Z,20.57
2018-12-13T23:57:24.448Z,22.43
2018-12-13T23:59:52.741Z,19.73
